sensor_id;sensor_type;location;lat;lon;timestamp;P1;durP1;ratioP1;P2;durP2;ratioP2
22843;SDS011;11588;51.178;4.852;2023-05-16T00:00:26;13.73;;;1.83;;
22843;SDS011;11588;51.178;4.852;2023-05-16T00:02:54;15.35;;;1.80;;
22843;SDS011;11588;51.178;4.852;2023-05-16T00:05:21;17.90;;;3.13;;
22843;SDS011;11588;51.178;4.852;2023-05-16T00:07:47;15.40;;;2.25;;
22843;SDS011;11588;51.178;4.852;2023-05-16T00:10:14;13.80;;;1.75;;
22843;SDS011;11588;51.178;4.852;2023-05-16T00:12:40;15.55;;;1.95;;
22843;SDS011;11588;51.178;4.852;2023-05-16T00:15:09;11.73;;;1.63;;
22843;SDS011;11588;51.178;4.852;2023-05-16T00:17:38;12.50;;;2.00;;
22843;SDS011;11588;51.178;4.852;2023-05-16T00:20:06;14.75;;;1.90;;
22843;SDS011;11588;51.178;4.852;2023-05-16T00:22:37;16.77;;;2.30;;
22843;SDS011;11588;51.178;4.852;2023-05-16T00:25:04;13.10;;;1.65;;
22843;SDS011;11588;51.178;4.852;2023-05-16T00:27:32;17.35;;;1.90;;
22843;SDS011;11588;51.178;4.852;2023-05-16T00:29:59;14.40;;;1.65;;
22843;SDS011;11588;51.178;4.852;2023-05-16T00:32:27;15.90;;;2.35;;
22843;SDS011;11588;51.178;4.852;2023-05-16T00:34:53;15.15;;;1.77;;
22843;SDS011;11588;51.178;4.852;2023-05-16T00:37:20;15.20;;;2.70;;
22843;SDS011;11588;51.178;4.852;2023-05-16T00:39:46;12.15;;;2.15;;
22843;SDS011;11588;51.178;4.852;2023-05-16T00:42:13;15.25;;;2.25;;
22843;SDS011;11588;51.178;4.852;2023-05-16T00:44:40;13.50;;;2.33;;
22843;SDS011;11588;51.178;4.852;2023-05-16T00:47:06;13.88;;;2.10;;
22843;SDS011;11588;51.178;4.852;2023-05-16T00:49:33;10.77;;;2.03;;
22843;SDS011;11588;51.178;4.852;2023-05-16T00:52:00;10.43;;;1.90;;
22843;SDS011;11588;51.178;4.852;2023-05-16T00:54:26;13.45;;;2.05;;
22843;SDS011;11588;51.178;4.852;2023-05-16T00:56:54;11.10;;;1.80;;
22843;SDS011;11588;51.178;4.852;2023-05-16T00:59:23;11.25;;;1.70;;
22843;SDS011;11588;51.178;4.852;2023-05-16T01:01:50;11.57;;;2.25;;
22843;SDS011;11588;51.178;4.852;2023-05-16T01:04:17;9.63;;;1.88;;
22843;SDS011;11588;51.178;4.852;2023-05-16T01:06:44;13.48;;;2.33;;
22843;SDS011;11588;51.178;4.852;2023-05-16T01:09:11;11.95;;;1.95;;
22843;SDS011;11588;51.178;4.852;2023-05-16T01:14:20;15.25;;;2.47;;
22843;SDS011;11588;51.178;4.852;2023-05-16T01:16:58;10.20;;;1.70;;
22843;SDS011;11588;51.178;4.852;2023-05-16T01:24:32;15.70;;;2.60;;
22843;SDS011;11588;51.178;4.852;2023-05-16T01:27:00;13.32;;;1.75;;
22843;SDS011;11588;51.178;4.852;2023-05-16T01:29:28;14.98;;;1.80;;
22843;SDS011;11588;51.178;4.852;2023-05-16T01:31:55;10.75;;;2.78;;
22843;SDS011;11588;51.178;4.852;2023-05-16T01:34:23;8.10;;;2.13;;
22843;SDS011;11588;51.178;4.852;2023-05-16T01:36:55;9.00;;;2.10;;
22843;SDS011;11588;51.178;4.852;2023-05-16T01:42:02;12.75;;;2.58;;
22843;SDS011;11588;51.178;4.852;2023-05-16T01:47:15;13.10;;;2.08;;
22843;SDS011;11588;51.178;4.852;2023-05-16T01:52:23;14.70;;;1.92;;
22843;SDS011;11588;51.178;4.852;2023-05-16T01:54:54;11.38;;;2.17;;
22843;SDS011;11588;51.178;4.852;2023-05-16T01:57:23;7.95;;;1.70;;
22843;SDS011;11588;51.178;4.852;2023-05-16T01:59:50;8.57;;;1.50;;
22843;SDS011;11588;51.178;4.852;2023-05-16T02:02:17;11.50;;;2.17;;
22843;SDS011;11588;51.178;4.852;2023-05-16T02:04:45;12.68;;;2.08;;
22843;SDS011;11588;51.178;4.852;2023-05-16T02:07:12;13.55;;;2.33;;
22843;SDS011;11588;51.178;4.852;2023-05-16T02:09:40;12.45;;;2.08;;
22843;SDS011;11588;51.178;4.852;2023-05-16T02:12:07;11.70;;;1.48;;
22843;SDS011;11588;51.178;4.852;2023-05-16T02:14:33;14.27;;;1.80;;
22843;SDS011;11588;51.178;4.852;2023-05-16T02:17:00;13.20;;;1.70;;
22843;SDS011;11588;51.178;4.852;2023-05-16T02:19:27;12.85;;;1.95;;
22843;SDS011;11588;51.178;4.852;2023-05-16T02:21:53;10.05;;;2.00;;
22843;SDS011;11588;51.178;4.852;2023-05-16T02:24:20;9.85;;;1.70;;
22843;SDS011;11588;51.178;4.852;2023-05-16T02:26:47;15.85;;;2.53;;
22843;SDS011;11588;51.178;4.852;2023-05-16T02:29:13;10.30;;;1.73;;
22843;SDS011;11588;51.178;4.852;2023-05-16T02:31:41;10.93;;;1.80;;
22843;SDS011;11588;51.178;4.852;2023-05-16T02:34:08;12.38;;;1.67;;
22843;SDS011;11588;51.178;4.852;2023-05-16T02:36:35;12.32;;;1.75;;
22843;SDS011;11588;51.178;4.852;2023-05-16T02:39:02;14.75;;;2.50;;
22843;SDS011;11588;51.178;4.852;2023-05-16T02:41:30;6.82;;;1.55;;
22843;SDS011;11588;51.178;4.852;2023-05-16T02:43:57;8.85;;;1.55;;
22843;SDS011;11588;51.178;4.852;2023-05-16T02:46:25;9.25;;;1.88;;
22843;SDS011;11588;51.178;4.852;2023-05-16T02:48:52;9.35;;;1.63;;
22843;SDS011;11588;51.178;4.852;2023-05-16T02:51:19;12.50;;;2.55;;
22843;SDS011;11588;51.178;4.852;2023-05-16T02:53:47;17.73;;;2.80;;
22843;SDS011;11588;51.178;4.852;2023-05-16T02:56:13;8.25;;;1.60;;
22843;SDS011;11588;51.178;4.852;2023-05-16T02:58:40;13.02;;;2.45;;
22843;SDS011;11588;51.178;4.852;2023-05-16T03:01:07;9.30;;;1.70;;
22843;SDS011;11588;51.178;4.852;2023-05-16T03:03:35;11.90;;;2.10;;
22843;SDS011;11588;51.178;4.852;2023-05-16T03:06:02;11.93;;;2.10;;
22843;SDS011;11588;51.178;4.852;2023-05-16T03:08:29;10.85;;;2.05;;
22843;SDS011;11588;51.178;4.852;2023-05-16T03:10:56;12.50;;;1.98;;
22843;SDS011;11588;51.178;4.852;2023-05-16T03:13:23;9.93;;;2.03;;
22843;SDS011;11588;51.178;4.852;2023-05-16T03:15:50;11.02;;;1.83;;
22843;SDS011;11588;51.178;4.852;2023-05-16T03:18:17;11.18;;;1.77;;
22843;SDS011;11588;51.178;4.852;2023-05-16T03:20:43;11.48;;;1.58;;
22843;SDS011;11588;51.178;4.852;2023-05-16T03:23:10;9.50;;;1.73;;
22843;SDS011;11588;51.178;4.852;2023-05-16T03:25:39;12.48;;;2.25;;
22843;SDS011;11588;51.178;4.852;2023-05-16T03:28:08;13.50;;;2.53;;
22843;SDS011;11588;51.178;4.852;2023-05-16T03:30:35;11.07;;;1.75;;
22843;SDS011;11588;51.178;4.852;2023-05-16T03:33:01;8.20;;;1.58;;
22843;SDS011;11588;51.178;4.852;2023-05-16T03:35:30;19.85;;;2.40;;
22843;SDS011;11588;51.178;4.852;2023-05-16T03:37:57;10.52;;;1.95;;
22843;SDS011;11588;51.178;4.852;2023-05-16T03:40:24;8.48;;;2.17;;
22843;SDS011;11588;51.178;4.852;2023-05-16T03:42:51;10.20;;;1.45;;
22843;SDS011;11588;51.178;4.852;2023-05-16T03:45:17;10.63;;;1.77;;
22843;SDS011;11588;51.178;4.852;2023-05-16T03:47:44;7.43;;;1.58;;
22843;SDS011;11588;51.178;4.852;2023-05-16T03:50:11;10.52;;;1.88;;
22843;SDS011;11588;51.178;4.852;2023-05-16T03:52:38;11.93;;;2.40;;
22843;SDS011;11588;51.178;4.852;2023-05-16T03:55:05;13.93;;;2.00;;
22843;SDS011;11588;51.178;4.852;2023-05-16T03:57:32;10.30;;;2.30;;
22843;SDS011;11588;51.178;4.852;2023-05-16T03:59:59;10.95;;;1.80;;
22843;SDS011;11588;51.178;4.852;2023-05-16T04:02:26;8.18;;;1.60;;
22843;SDS011;11588;51.178;4.852;2023-05-16T04:04:56;11.13;;;2.30;;
22843;SDS011;11588;51.178;4.852;2023-05-16T04:07:22;9.73;;;1.65;;
22843;SDS011;11588;51.178;4.852;2023-05-16T04:09:50;10.95;;;2.08;;
22843;SDS011;11588;51.178;4.852;2023-05-16T04:12:17;9.68;;;1.73;;
22843;SDS011;11588;51.178;4.852;2023-05-16T04:14:43;8.18;;;1.67;;
22843;SDS011;11588;51.178;4.852;2023-05-16T04:17:10;12.73;;;1.90;;
22843;SDS011;11588;51.178;4.852;2023-05-16T04:19:38;9.43;;;2.08;;
22843;SDS011;11588;51.178;4.852;2023-05-16T04:22:05;12.02;;;2.17;;
22843;SDS011;11588;51.178;4.852;2023-05-16T04:24:31;15.13;;;2.17;;
22843;SDS011;11588;51.178;4.852;2023-05-16T04:26:59;7.90;;;2.10;;
22843;SDS011;11588;51.178;4.852;2023-05-16T04:29:26;10.73;;;1.63;;
22843;SDS011;11588;51.178;4.852;2023-05-16T04:31:53;15.40;;;2.20;;
22843;SDS011;11588;51.178;4.852;2023-05-16T04:34:20;9.63;;;1.50;;
22843;SDS011;11588;51.178;4.852;2023-05-16T04:36:48;14.35;;;1.90;;
22843;SDS011;11588;51.178;4.852;2023-05-16T04:39:15;9.70;;;1.92;;
22843;SDS011;11588;51.178;4.852;2023-05-16T04:41:42;9.00;;;1.70;;
22843;SDS011;11588;51.178;4.852;2023-05-16T04:44:09;6.22;;;1.70;;
22843;SDS011;11588;51.178;4.852;2023-05-16T04:46:36;14.20;;;2.08;;
22843;SDS011;11588;51.178;4.852;2023-05-16T04:49:02;15.70;;;1.65;;
22843;SDS011;11588;51.178;4.852;2023-05-16T04:51:29;11.88;;;1.95;;
22843;SDS011;11588;51.178;4.852;2023-05-16T04:53:58;10.80;;;2.25;;
22843;SDS011;11588;51.178;4.852;2023-05-16T04:56:24;8.25;;;1.55;;
22843;SDS011;11588;51.178;4.852;2023-05-16T04:58:52;9.05;;;2.03;;
22843;SDS011;11588;51.178;4.852;2023-05-16T05:01:20;13.38;;;2.22;;
22843;SDS011;11588;51.178;4.852;2023-05-16T05:03:46;8.82;;;2.28;;
22843;SDS011;11588;51.178;4.852;2023-05-16T05:06:13;12.45;;;1.85;;
22843;SDS011;11588;51.178;4.852;2023-05-16T05:08:40;10.35;;;2.15;;
22843;SDS011;11588;51.178;4.852;2023-05-16T05:11:06;6.57;;;1.45;;
22843;SDS011;11588;51.178;4.852;2023-05-16T05:13:33;11.13;;;2.60;;
22843;SDS011;11588;51.178;4.852;2023-05-16T05:16:00;11.73;;;1.70;;
22843;SDS011;11588;51.178;4.852;2023-05-16T05:18:30;5.60;;;2.10;;
22843;SDS011;11588;51.178;4.852;2023-05-16T05:20:57;13.73;;;2.13;;
22843;SDS011;11588;51.178;4.852;2023-05-16T05:23:22;8.15;;;1.92;;
22843;SDS011;11588;51.178;4.852;2023-05-16T05:25:49;8.25;;;1.90;;
22843;SDS011;11588;51.178;4.852;2023-05-16T05:28:16;11.85;;;1.50;;
22843;SDS011;11588;51.178;4.852;2023-05-16T05:30:42;9.07;;;1.42;;
22843;SDS011;11588;51.178;4.852;2023-05-16T05:33:10;10.48;;;1.40;;
22843;SDS011;11588;51.178;4.852;2023-05-16T05:35:36;9.40;;;1.40;;
22843;SDS011;11588;51.178;4.852;2023-05-16T05:38:03;8.77;;;1.42;;
22843;SDS011;11588;51.178;4.852;2023-05-16T05:40:29;11.30;;;1.40;;
22843;SDS011;11588;51.178;4.852;2023-05-16T05:42:56;10.88;;;1.67;;
22843;SDS011;11588;51.178;4.852;2023-05-16T05:45:23;12.43;;;1.25;;
22843;SDS011;11588;51.178;4.852;2023-05-16T05:47:50;6.90;;;1.30;;
22843;SDS011;11588;51.178;4.852;2023-05-16T05:50:16;9.40;;;1.60;;
22843;SDS011;11588;51.178;4.852;2023-05-16T05:52:43;9.18;;;1.75;;
22843;SDS011;11588;51.178;4.852;2023-05-16T05:55:10;10.52;;;2.13;;
22843;SDS011;11588;51.178;4.852;2023-05-16T05:57:39;8.38;;;2.17;;
22843;SDS011;11588;51.178;4.852;2023-05-16T06:00:06;11.15;;;1.50;;
22843;SDS011;11588;51.178;4.852;2023-05-16T06:02:33;7.22;;;1.48;;
22843;SDS011;11588;51.178;4.852;2023-05-16T06:05:00;7.25;;;1.00;;
22843;SDS011;11588;51.178;4.852;2023-05-16T06:07:26;10.55;;;1.35;;
22843;SDS011;11588;51.178;4.852;2023-05-16T06:09:53;7.38;;;1.30;;
22843;SDS011;11588;51.178;4.852;2023-05-16T06:12:20;8.63;;;1.40;;
22843;SDS011;11588;51.178;4.852;2023-05-16T06:14:46;7.57;;;1.13;;
22843;SDS011;11588;51.178;4.852;2023-05-16T06:17:13;8.10;;;1.27;;
22843;SDS011;11588;51.178;4.852;2023-05-16T06:19:40;10.73;;;1.20;;
22843;SDS011;11588;51.178;4.852;2023-05-16T06:22:07;11.13;;;1.33;;
22843;SDS011;11588;51.178;4.852;2023-05-16T06:24:33;10.52;;;1.45;;
22843;SDS011;11588;51.178;4.852;2023-05-16T06:27:00;7.75;;;1.10;;
22843;SDS011;11588;51.178;4.852;2023-05-16T06:29:27;7.13;;;1.17;;
22843;SDS011;11588;51.178;4.852;2023-05-16T06:31:54;4.75;;;1.02;;
22843;SDS011;11588;51.178;4.852;2023-05-16T06:34:20;5.47;;;1.33;;
22843;SDS011;11588;51.178;4.852;2023-05-16T06:36:54;8.05;;;1.30;;
22843;SDS011;11588;51.178;4.852;2023-05-16T06:39:21;10.23;;;1.30;;
22843;SDS011;11588;51.178;4.852;2023-05-16T06:41:47;9.13;;;1.42;;
22843;SDS011;11588;51.178;4.852;2023-05-16T06:44:14;5.85;;;1.88;;
22843;SDS011;11588;51.178;4.852;2023-05-16T06:46:41;6.70;;;1.30;;
22843;SDS011;11588;51.178;4.852;2023-05-16T06:49:07;6.63;;;1.10;;
22843;SDS011;11588;51.178;4.852;2023-05-16T06:51:34;6.95;;;1.10;;
22843;SDS011;11588;51.178;4.852;2023-05-16T06:54:01;8.52;;;1.23;;
22843;SDS011;11588;51.178;4.852;2023-05-16T06:56:28;4.80;;;0.88;;
22843;SDS011;11588;51.178;4.852;2023-05-16T06:58:54;10.38;;;2.28;;
22843;SDS011;11588;51.178;4.852;2023-05-16T07:01:21;4.30;;;1.02;;
22843;SDS011;11588;51.178;4.852;2023-05-16T07:03:48;9.18;;;1.42;;
22843;SDS011;11588;51.178;4.852;2023-05-16T07:06:15;6.93;;;1.23;;
22843;SDS011;11588;51.178;4.852;2023-05-16T07:08:41;6.90;;;0.82;;
22843;SDS011;11588;51.178;4.852;2023-05-16T07:11:08;9.25;;;1.10;;
22843;SDS011;11588;51.178;4.852;2023-05-16T07:13:36;6.47;;;1.17;;
22843;SDS011;11588;51.178;4.852;2023-05-16T07:16:03;7.57;;;0.98;;
22843;SDS011;11588;51.178;4.852;2023-05-16T07:18:30;5.82;;;1.23;;
22843;SDS011;11588;51.178;4.852;2023-05-16T07:20:56;12.63;;;1.50;;
22843;SDS011;11588;51.178;4.852;2023-05-16T07:23:23;7.60;;;1.73;;
22843;SDS011;11588;51.178;4.852;2023-05-16T07:25:50;4.88;;;0.93;;
22843;SDS011;11588;51.178;4.852;2023-05-16T07:28:17;7.90;;;1.17;;
22843;SDS011;11588;51.178;4.852;2023-05-16T07:30:44;5.47;;;0.98;;
22843;SDS011;11588;51.178;4.852;2023-05-16T07:33:11;6.13;;;1.00;;
22843;SDS011;11588;51.178;4.852;2023-05-16T07:35:38;4.43;;;0.98;;
22843;SDS011;11588;51.178;4.852;2023-05-16T07:38:05;6.53;;;1.05;;
22843;SDS011;11588;51.178;4.852;2023-05-16T07:40:32;7.13;;;1.02;;
22843;SDS011;11588;51.178;4.852;2023-05-16T07:42:58;5.50;;;0.95;;
22843;SDS011;11588;51.178;4.852;2023-05-16T07:45:25;5.90;;;0.95;;
22843;SDS011;11588;51.178;4.852;2023-05-16T07:47:54;9.15;;;1.17;;
22843;SDS011;11588;51.178;4.852;2023-05-16T07:50:27;5.43;;;0.65;;
22843;SDS011;11588;51.178;4.852;2023-05-16T07:52:54;4.93;;;0.82;;
22843;SDS011;11588;51.178;4.852;2023-05-16T07:55:24;5.57;;;1.00;;
22843;SDS011;11588;51.178;4.852;2023-05-16T07:57:51;4.50;;;1.10;;
22843;SDS011;11588;51.178;4.852;2023-05-16T08:00:18;7.20;;;0.90;;
22843;SDS011;11588;51.178;4.852;2023-05-16T08:02:45;5.32;;;1.00;;
22843;SDS011;11588;51.178;4.852;2023-05-16T08:05:12;7.70;;;1.10;;
22843;SDS011;11588;51.178;4.852;2023-05-16T08:07:38;8.90;;;1.45;;
22843;SDS011;11588;51.178;4.852;2023-05-16T08:10:05;6.05;;;1.00;;
22843;SDS011;11588;51.178;4.852;2023-05-16T08:12:32;4.50;;;1.23;;
22843;SDS011;11588;51.178;4.852;2023-05-16T08:14:59;5.95;;;1.00;;
22843;SDS011;11588;51.178;4.852;2023-05-16T08:17:27;5.35;;;0.90;;
22843;SDS011;11588;51.178;4.852;2023-05-16T08:19:53;5.43;;;1.02;;
22843;SDS011;11588;51.178;4.852;2023-05-16T08:22:21;3.90;;;0.90;;
22843;SDS011;11588;51.178;4.852;2023-05-16T08:24:48;5.13;;;0.90;;
22843;SDS011;11588;51.178;4.852;2023-05-16T08:27:15;6.13;;;1.15;;
22843;SDS011;11588;51.178;4.852;2023-05-16T08:29:41;3.28;;;0.70;;
22843;SDS011;11588;51.178;4.852;2023-05-16T08:32:08;4.78;;;0.80;;
22843;SDS011;11588;51.178;4.852;2023-05-16T08:34:36;4.20;;;0.75;;
22843;SDS011;11588;51.178;4.852;2023-05-16T08:37:03;5.97;;;0.88;;
22843;SDS011;11588;51.178;4.852;2023-05-16T08:39:30;7.07;;;1.33;;
22843;SDS011;11588;51.178;4.852;2023-05-16T08:41:57;4.22;;;0.80;;
22843;SDS011;11588;51.178;4.852;2023-05-16T08:44:24;5.20;;;0.98;;
22843;SDS011;11588;51.178;4.852;2023-05-16T08:46:51;4.22;;;1.00;;
22843;SDS011;11588;51.178;4.852;2023-05-16T08:49:19;4.40;;;0.82;;
22843;SDS011;11588;51.178;4.852;2023-05-16T08:51:46;4.82;;;0.90;;
22843;SDS011;11588;51.178;4.852;2023-05-16T08:54:14;7.45;;;0.98;;
22843;SDS011;11588;51.178;4.852;2023-05-16T08:56:41;6.60;;;1.27;;
22843;SDS011;11588;51.178;4.852;2023-05-16T08:59:08;6.60;;;0.88;;
22843;SDS011;11588;51.178;4.852;2023-05-16T09:01:36;3.35;;;1.33;;
22843;SDS011;11588;51.178;4.852;2023-05-16T09:04:05;3.75;;;1.15;;
22843;SDS011;11588;51.178;4.852;2023-05-16T09:06:32;4.30;;;0.80;;
22843;SDS011;11588;51.178;4.852;2023-05-16T09:08:59;6.50;;;0.90;;
22843;SDS011;11588;51.178;4.852;2023-05-16T09:11:26;3.85;;;0.60;;
22843;SDS011;11588;51.178;4.852;2023-05-16T09:13:53;4.65;;;0.80;;
22843;SDS011;11588;51.178;4.852;2023-05-16T09:16:20;8.73;;;0.93;;
22843;SDS011;11588;51.178;4.852;2023-05-16T09:21:26;2.58;;;0.70;;
22843;SDS011;11588;51.178;4.852;2023-05-16T09:23:53;5.03;;;0.90;;
22843;SDS011;11588;51.178;4.852;2023-05-16T09:26:20;5.28;;;0.65;;
22843;SDS011;11588;51.178;4.852;2023-05-16T09:28:48;4.97;;;1.00;;
22843;SDS011;11588;51.178;4.852;2023-05-16T09:31:21;2.25;;;0.63;;
22843;SDS011;11588;51.178;4.852;2023-05-16T09:33:48;3.55;;;0.55;;
22843;SDS011;11588;51.178;4.852;2023-05-16T09:36:16;2.58;;;0.65;;
22843;SDS011;11588;51.178;4.852;2023-05-16T09:38:43;5.10;;;0.70;;
22843;SDS011;11588;51.178;4.852;2023-05-16T09:41:09;3.97;;;0.80;;
22843;SDS011;11588;51.178;4.852;2023-05-16T09:43:37;4.97;;;0.77;;
22843;SDS011;11588;51.178;4.852;2023-05-16T09:46:04;6.13;;;0.80;;
22843;SDS011;11588;51.178;4.852;2023-05-16T09:48:31;4.55;;;0.70;;
22843;SDS011;11588;51.178;4.852;2023-05-16T09:50:58;3.92;;;0.88;;
22843;SDS011;11588;51.178;4.852;2023-05-16T09:53:31;5.00;;;0.90;;
22843;SDS011;11588;51.178;4.852;2023-05-16T09:56:00;4.75;;;0.80;;
22843;SDS011;11588;51.178;4.852;2023-05-16T09:58:28;4.18;;;0.80;;
22843;SDS011;11588;51.178;4.852;2023-05-16T10:00:56;6.75;;;0.95;;
22843;SDS011;11588;51.178;4.852;2023-05-16T10:03:23;5.75;;;0.80;;
22843;SDS011;11588;51.178;4.852;2023-05-16T10:05:50;4.75;;;1.42;;
22843;SDS011;11588;51.178;4.852;2023-05-16T10:08:19;5.88;;;1.05;;
22843;SDS011;11588;51.178;4.852;2023-05-16T10:10:46;7.15;;;0.80;;
22843;SDS011;11588;51.178;4.852;2023-05-16T10:13:16;3.30;;;0.93;;
22843;SDS011;11588;51.178;4.852;2023-05-16T10:15:43;4.90;;;0.98;;
22843;SDS011;11588;51.178;4.852;2023-05-16T10:18:10;5.72;;;1.10;;
22843;SDS011;11588;51.178;4.852;2023-05-16T10:20:38;3.50;;;0.88;;
22843;SDS011;11588;51.178;4.852;2023-05-16T10:23:07;5.07;;;0.88;;
22843;SDS011;11588;51.178;4.852;2023-05-16T10:25:35;3.55;;;0.82;;
22843;SDS011;11588;51.178;4.852;2023-05-16T10:28:04;3.53;;;1.30;;
22843;SDS011;11588;51.178;4.852;2023-05-16T10:30:32;5.30;;;1.00;;
22843;SDS011;11588;51.178;4.852;2023-05-16T10:33:00;4.97;;;0.70;;
22843;SDS011;11588;51.178;4.852;2023-05-16T10:35:27;4.13;;;1.02;;
22843;SDS011;11588;51.178;4.852;2023-05-16T10:37:53;3.08;;;0.73;;
22843;SDS011;11588;51.178;4.852;2023-05-16T10:40:21;5.32;;;0.80;;
22843;SDS011;11588;51.178;4.852;2023-05-16T10:45:24;6.75;;;1.30;;
22843;SDS011;11588;51.178;4.852;2023-05-16T10:47:54;6.30;;;1.13;;
22843;SDS011;11588;51.178;4.852;2023-05-16T10:55:37;6.07;;;1.20;;
22843;SDS011;11588;51.178;4.852;2023-05-16T10:58:04;2.42;;;0.80;;
22843;SDS011;11588;51.178;4.852;2023-05-16T11:00:31;3.30;;;0.80;;
22843;SDS011;11588;51.178;4.852;2023-05-16T11:05:33;5.60;;;0.68;;
22843;SDS011;11588;51.178;4.852;2023-05-16T11:08:02;3.97;;;0.68;;
22843;SDS011;11588;51.178;4.852;2023-05-16T11:10:30;3.78;;;1.00;;
22843;SDS011;11588;51.178;4.852;2023-05-16T11:13:01;7.05;;;0.98;;
22843;SDS011;11588;51.178;4.852;2023-05-16T11:15:30;5.55;;;1.10;;
22843;SDS011;11588;51.178;4.852;2023-05-16T11:20:35;3.83;;;0.70;;
22843;SDS011;11588;51.178;4.852;2023-05-16T11:25:40;4.10;;;0.65;;
22843;SDS011;11588;51.178;4.852;2023-05-16T11:28:06;2.80;;;0.68;;
22843;SDS011;11588;51.178;4.852;2023-05-16T11:30:33;8.65;;;1.20;;
22843;SDS011;11588;51.178;4.852;2023-05-16T11:33:00;3.47;;;1.08;;
22843;SDS011;11588;51.178;4.852;2023-05-16T11:35:27;7.38;;;0.93;;
22843;SDS011;11588;51.178;4.852;2023-05-16T11:37:54;3.95;;;0.55;;
22843;SDS011;11588;51.178;4.852;2023-05-16T11:40:22;2.33;;;0.60;;
22843;SDS011;11588;51.178;4.852;2023-05-16T11:42:49;2.90;;;0.60;;
22843;SDS011;11588;51.178;4.852;2023-05-16T11:45:18;2.75;;;0.70;;
22843;SDS011;11588;51.178;4.852;2023-05-16T11:47:45;4.13;;;0.70;;
22843;SDS011;11588;51.178;4.852;2023-05-16T11:50:13;4.18;;;0.70;;
22843;SDS011;11588;51.178;4.852;2023-05-16T11:52:42;5.57;;;0.70;;
22843;SDS011;11588;51.178;4.852;2023-05-16T11:55:09;4.25;;;0.93;;
22843;SDS011;11588;51.178;4.852;2023-05-16T11:57:37;2.22;;;0.68;;
22843;SDS011;11588;51.178;4.852;2023-05-16T12:00:04;5.03;;;0.73;;
22843;SDS011;11588;51.178;4.852;2023-05-16T12:02:33;3.97;;;0.82;;
22843;SDS011;11588;51.178;4.852;2023-05-16T12:05:04;8.60;;;0.95;;
22843;SDS011;11588;51.178;4.852;2023-05-16T12:07:34;7.25;;;0.80;;
22843;SDS011;11588;51.178;4.852;2023-05-16T12:12:39;4.50;;;0.80;;
22843;SDS011;11588;51.178;4.852;2023-05-16T12:15:07;6.28;;;0.75;;
22843;SDS011;11588;51.178;4.852;2023-05-16T12:17:34;3.90;;;1.10;;
22843;SDS011;11588;51.178;4.852;2023-05-16T12:20:01;2.67;;;0.80;;
22843;SDS011;11588;51.178;4.852;2023-05-16T12:22:31;4.10;;;1.02;;
22843;SDS011;11588;51.178;4.852;2023-05-16T12:24:59;5.68;;;1.25;;
22843;SDS011;11588;51.178;4.852;2023-05-16T12:27:25;5.03;;;0.77;;
22843;SDS011;11588;51.178;4.852;2023-05-16T12:29:53;3.20;;;0.88;;
22843;SDS011;11588;51.178;4.852;2023-05-16T12:32:26;5.38;;;0.82;;
22843;SDS011;11588;51.178;4.852;2023-05-16T12:34:53;4.60;;;0.80;;
22843;SDS011;11588;51.178;4.852;2023-05-16T12:37:20;5.57;;;1.10;;
22843;SDS011;11588;51.178;4.852;2023-05-16T12:39:47;6.25;;;0.88;;
22843;SDS011;11588;51.178;4.852;2023-05-16T12:42:14;5.10;;;1.08;;
22843;SDS011;11588;51.178;4.852;2023-05-16T12:44:43;4.65;;;0.70;;
22843;SDS011;11588;51.178;4.852;2023-05-16T12:47:11;8.38;;;1.10;;
22843;SDS011;11588;51.178;4.852;2023-05-16T12:52:16;4.22;;;0.60;;
22843;SDS011;11588;51.178;4.852;2023-05-16T12:54:47;2.42;;;0.80;;
22843;SDS011;11588;51.178;4.852;2023-05-16T12:57:13;8.38;;;1.38;;
22843;SDS011;11588;51.178;4.852;2023-05-16T12:59:40;3.97;;;0.70;;
22843;SDS011;11588;51.178;4.852;2023-05-16T13:02:07;2.55;;;0.80;;
22843;SDS011;11588;51.178;4.852;2023-05-16T13:04:33;3.80;;;0.70;;
22843;SDS011;11588;51.178;4.852;2023-05-16T13:07:00;5.25;;;0.90;;
22843;SDS011;11588;51.178;4.852;2023-05-16T13:09:30;5.93;;;0.80;;
22843;SDS011;11588;51.178;4.852;2023-05-16T13:11:58;2.90;;;0.70;;
22843;SDS011;11588;51.178;4.852;2023-05-16T13:14:25;3.00;;;0.70;;
22843;SDS011;11588;51.178;4.852;2023-05-16T13:16:54;3.28;;;0.82;;
22843;SDS011;11588;51.178;4.852;2023-05-16T13:19:21;2.00;;;0.60;;
22843;SDS011;11588;51.178;4.852;2023-05-16T13:21:49;5.10;;;0.90;;
22843;SDS011;11588;51.178;4.852;2023-05-16T13:24:16;5.63;;;1.00;;
22843;SDS011;11588;51.178;4.852;2023-05-16T13:26:42;3.25;;;0.80;;
22843;SDS011;11588;51.178;4.852;2023-05-16T13:29:09;4.80;;;0.80;;
22843;SDS011;11588;51.178;4.852;2023-05-16T13:31:37;4.05;;;0.70;;
22843;SDS011;11588;51.178;4.852;2023-05-16T13:34:04;3.42;;;0.88;;
22843;SDS011;11588;51.178;4.852;2023-05-16T13:36:31;5.55;;;0.90;;
22843;SDS011;11588;51.178;4.852;2023-05-16T13:38:59;3.90;;;0.75;;
22843;SDS011;11588;51.178;4.852;2023-05-16T13:41:44;2.45;;;0.90;;
22843;SDS011;11588;51.178;4.852;2023-05-16T13:44:11;2.75;;;0.63;;
22843;SDS011;11588;51.178;4.852;2023-05-16T13:46:41;3.90;;;0.80;;
22843;SDS011;11588;51.178;4.852;2023-05-16T13:49:08;3.75;;;0.73;;
22843;SDS011;11588;51.178;4.852;2023-05-16T13:51:35;3.17;;;0.80;;
22843;SDS011;11588;51.178;4.852;2023-05-16T13:54:20;2.03;;;0.65;;
22843;SDS011;11588;51.178;4.852;2023-05-16T13:59:50;4.32;;;0.70;;
22843;SDS011;11588;51.178;4.852;2023-05-16T14:02:55;4.75;;;0.60;;
22843;SDS011;11588;51.178;4.852;2023-05-16T14:05:25;4.35;;;0.90;;
22843;SDS011;11588;51.178;4.852;2023-05-16T14:07:51;2.33;;;0.70;;
22843;SDS011;11588;51.178;4.852;2023-05-16T14:10:32;2.40;;;0.60;;
22843;SDS011;11588;51.178;4.852;2023-05-16T14:13:00;5.20;;;0.80;;
22843;SDS011;11588;51.178;4.852;2023-05-16T14:15:33;5.75;;;0.68;;
22843;SDS011;11588;51.178;4.852;2023-05-16T14:18:00;2.80;;;0.70;;
22843;SDS011;11588;51.178;4.852;2023-05-16T14:20:32;4.00;;;0.60;;
22843;SDS011;11588;51.178;4.852;2023-05-16T14:23:21;5.50;;;0.70;;
22843;SDS011;11588;51.178;4.852;2023-05-16T14:25:49;4.03;;;0.60;;
22843;SDS011;11588;51.178;4.852;2023-05-16T14:28:17;4.20;;;0.80;;
22843;SDS011;11588;51.178;4.852;2023-05-16T14:30:48;7.03;;;1.00;;
22843;SDS011;11588;51.178;4.852;2023-05-16T14:33:29;5.75;;;0.80;;
22843;SDS011;11588;51.178;4.852;2023-05-16T14:39:01;3.42;;;0.75;;
22843;SDS011;11588;51.178;4.852;2023-05-16T14:41:28;3.58;;;0.88;;
22843;SDS011;11588;51.178;4.852;2023-05-16T14:43:54;5.85;;;0.60;;
22843;SDS011;11588;51.178;4.852;2023-05-16T14:46:29;4.45;;;0.80;;
22843;SDS011;11588;51.178;4.852;2023-05-16T14:48:57;4.93;;;0.90;;
22843;SDS011;11588;51.178;4.852;2023-05-16T14:51:23;6.93;;;1.55;;
22843;SDS011;11588;51.178;4.852;2023-05-16T14:53:51;5.53;;;0.80;;
22843;SDS011;11588;51.178;4.852;2023-05-16T14:56:17;4.53;;;0.70;;
22843;SDS011;11588;51.178;4.852;2023-05-16T14:58:43;3.67;;;0.73;;
22843;SDS011;11588;51.178;4.852;2023-05-16T15:01:21;2.17;;;0.60;;
22843;SDS011;11588;51.178;4.852;2023-05-16T15:03:48;3.30;;;0.70;;
22843;SDS011;11588;51.178;4.852;2023-05-16T15:06:16;3.58;;;0.80;;
22843;SDS011;11588;51.178;4.852;2023-05-16T15:08:43;3.45;;;0.80;;
22843;SDS011;11588;51.178;4.852;2023-05-16T15:11:10;3.85;;;0.63;;
22843;SDS011;11588;51.178;4.852;2023-05-16T15:13:37;2.33;;;0.70;;
22843;SDS011;11588;51.178;4.852;2023-05-16T15:16:04;5.28;;;0.88;;
22843;SDS011;11588;51.178;4.852;2023-05-16T15:18:31;5.00;;;0.82;;
22843;SDS011;11588;51.178;4.852;2023-05-16T15:20:57;3.58;;;0.77;;
22843;SDS011;11588;51.178;4.852;2023-05-16T15:23:26;2.60;;;0.47;;
22843;SDS011;11588;51.178;4.852;2023-05-16T15:25:52;3.50;;;0.63;;
22843;SDS011;11588;51.178;4.852;2023-05-16T15:28:19;3.13;;;0.60;;
22843;SDS011;11588;51.178;4.852;2023-05-16T15:30:46;5.45;;;0.80;;